Nearby METAR Reports

 

KLOM - Philly Wings F, Pennsylvania, USA
Distance from station: SW 6mi, 10km
Updated: 03-Sep-2015 2:35am
Clear
Clear
 Wind from calm
Wind: Calm
Temperature: 64°F , 18°C
Dew Point: 64°F , 18°C
Humidity: 100%
Barometer: 29.88 inHg , 1011.9 hPa
Clouds: Clear
Visibility: 5 miles , 8 km
2015/09/03 06:35 KLOM 030635Z AUTO 00000KT 5SM CLR 18/18 A2988 RMK AO1
KDYL - Doylestown, Pennsylvania, USA
Distance from station: NNE 10mi, 17km
Updated: 03-Sep-2015 1:54am
Clear
Clear
 Wind from calm
Wind: Calm
Temperature: 70°F , 21°C
Dew Point: 64°F , 18°C
Humidity: 83%
Barometer: 29.90 inHg , 1012.5 hPa
Clouds: Clear
Visibility: 10 miles , 16 km
2015/09/03 05:54 KDYL 030554Z AUTO 00000KT 10SM CLR 21/18 A2990 RMK AO2 SLP120 T02060183 10244 20200 58004 $
KPNE - Philadelphia/Ne, Pennsylvania, USA
Distance from station: SE 11mi, 18km
Updated: 03-Sep-2015 1:54am
Clear
Clear
 Wind from NW
Wind: NW 5 mph , 7 km/h
Temperature: 75°F , 24°C
Dew Point: 63°F , 17°C
Humidity: 65%
Barometer: 29.90 inHg , 1012.5 hPa
Clouds: Clear
Visibility: 8 miles , 13 km
2015/09/03 05:54 KPNE 030554Z 31004KT 8SM CLR 24/17 A2990 RMK AO2 SLP124 T02440167 10306 20233 58005
 
KPTW - Pottstown, Pennsylvania, USA
Distance from station: W 20mi, 32km
Updated: 03-Sep-2015 1:54am
Clear
Clear
 Wind from calm
Wind: Calm
Temperature: 70°F , 21°C
Dew Point: 64°F , 18°C
Humidity: 83%
Barometer: 29.92 inHg , 1013.2 hPa
Clouds: Clear
Visibility: 9 miles , 14 km
2015/09/03 05:54 KPTW 030554Z AUTO 00000KT 9SM CLR 21/18 A2992 RMK AO2 SLP128 T02060183 10267 20206 58005
KTTN - Trenton, New Jersey, USA
Distance from station: ENE 20mi, 32km
Updated: 03-Sep-2015 1:53am
Clear
Clear
 Wind from NW
Wind: NW 6 mph , 9 km/h
Temperature: 72°F , 22°C
Dew Point: 66°F , 19°C
Humidity: 83%
Barometer: 29.88 inHg , 1011.9 hPa
Clouds: Clear
Visibility: 7 miles , 11 km
2015/09/03 05:53 KTTN 030553Z AUTO 32005KT 7SM CLR 22/19 A2988 RMK AO2 SLP112 T02220189 10294 20217 58005
KUKT - Quakertown Arp, Pennsylvania, USA
Distance from station: NNW 20mi, 32km
Updated: 03-Sep-2015 2:35am
Clear
Clear
 Wind from calm
Wind: Calm
Temperature: 64°F , 18°C
Dew Point: 63°F , 17°C
Humidity: 94%
Barometer: 29.92 inHg , 1013.2 hPa
Clouds: Clear
Visibility: 8 miles , 13 km
2015/09/03 06:35 KUKT 030635Z AUTO 00000KT 8SM CLR 18/17 A2992 RMK AO1
 
KPHL - Philadelphia, Pennsylvania, USA
Distance from station: S 22mi, 36km
Updated: 03-Sep-2015 2:08am
Clear
Clear
 Wind from calm
Wind: Calm
Temperature: 77°F , 25°C
Dew Point: 66°F , 19°C
Humidity: 69%
Barometer: 29.89 inHg , 1012.2 hPa
Clouds: Clear
Visibility: 7 miles , 11 km
2015/09/03 06:08 KPHL 030608Z 00000KT 7SM CLR 25/19 A2989 RMK AO2 T02500194
KVAY - Mount Holly, New Jersey, USA
Distance from station: SE 25mi, 41km
Updated: 03-Sep-2015 1:54am
Mist
Mist
 Wind from calm
Wind: Calm
Temperature: 70°F , 21°C
Dew Point: 66°F , 19°C
Humidity: 88%
Barometer: 29.88 inHg , 1011.9 hPa
Summary: Mist
Visibility: 6 miles , 10 km
2015/09/03 05:54 KVAY 030554Z AUTO 00000KT 6SM BR 21/19 A2988 RMK AO2 SLP118 T02110194 10272 20211 58007 $
KXLL - Allentown Queen, Pennsylvania, USA
Distance from station: NNW 31mi, 49km
Updated: 03-Sep-2015 2:35am
Clear
Clear
 Wind from calm
Wind: Calm
Temperature: 70°F , 21°C
Dew Point: 64°F , 18°C
Humidity: 83%
Barometer: 29.91 inHg , 1012.9 hPa
Clouds: Clear
Visibility: 7 miles , 11 km
2015/09/03 06:35 KXLL 030635Z AUTO 00000KT 7SM CLR 21/18 A2991 RMK AO2
 
KWRI - Wrightst/Mcguire, New Jersey, USA
Distance from station: ESE 34mi, 54km
Updated: 03-Sep-2015 2:03am
Clear
Clear
 Wind from W
Wind: W 3 mph , 6 km/h
Temperature: 70°F , 21°C
Dew Point: 70°F , 21°C
Humidity: 100%
Barometer: 29.86 inHg , 1011.2 hPa
Clouds: Clear
Visibility: 10 miles , 16 km
2015/09/03 06:03 KWRI 030603Z AUTO 28003KT 10SM CLR 21/21 A2986 RMK AO2
KABE - Allentown, Pennsylvania, USA
Distance from station: NNW 35mi, 56km
Updated: 03-Sep-2015 1:51am
Clear
Clear
 Wind from calm
Wind: Calm
Temperature: 70°F , 21°C
Dew Point: 64°F , 18°C
Humidity: 83%
Barometer: 29.92 inHg , 1013.2 hPa
Clouds: Clear
Visibility: 7 miles , 11 km
2015/09/03 05:51 KABE 030551Z AUTO 00000KT 7SM CLR 21/18 A2992 RMK AO2 SLP127 T02110183 10272 20200 58003
KMQS - Coatesville, Pennsylvania, USA
Distance from station: WSW 39mi, 63km
Updated: 03-Sep-2015 2:35am
Clear
Clear
 Wind from WNW
Wind: WNW 6 mph , 9 km/h
Temperature: 72°F , 22°C
Dew Point: 66°F , 19°C
Humidity: 83%
Barometer: 29.92 inHg , 1013.2 hPa
Clouds: Clear
Visibility: 9 miles , 14 km
2015/09/03 06:35 KMQS 030635Z AUTO 29005KT 9SM CLR 22/19 A2992 RMK AO2
 
KSMQ - Somerville, New Jersey, USA
Distance from station: NE 40mi, 64km
Updated: 03-Sep-2015 1:53am
Mist, Clear
Mist, Clear
 Wind from calm
Wind: Calm
Temperature: 66°F , 19°C
Dew Point: 64°F , 18°C
Humidity: 94%
Barometer: 29.88 inHg , 1011.9 hPa
Summary: Mist
Clouds: Clear
Visibility: 3 miles , 5 km
2015/09/03 05:53 KSMQ 030553Z AUTO 00000KT 3SM BR CLR 19/18 A2988 RMK AO2 SLP115 T01940178 10256 20189 58005
KILG - Wilmington, Delaware, USA
Distance from station: SSW 42mi, 68km
Updated: 03-Sep-2015 1:51am
Clear
Clear
 Wind from WNW
Wind: WNW 6 mph , 9 km/h
Temperature: 72°F , 22°C
Dew Point: 64°F , 18°C
Humidity: 78%
Barometer: 29.90 inHg , 1012.5 hPa
Clouds: Clear
Visibility: 7 miles , 11 km
2015/09/03 05:51 KILG 030551Z 29005KT 7SM CLR 22/18 A2990 RMK AO2 SLP124 T02220183 10283 20211 58007 $
KRDG - Reading, Pennsylvania, USA
Distance from station: WNW 43mi, 70km
Updated: 03-Sep-2015 1:54am
Mist, Clear
Mist, Clear
 Wind from calm
Wind: Calm
Temperature: 70°F , 21°C
Dew Point: 66°F , 19°C
Humidity: 88%
Barometer: 29.91 inHg , 1012.9 hPa
Summary: Mist
Clouds: Clear
Visibility: 6 miles , 10 km
2015/09/03 05:54 KRDG 030554Z AUTO 00000KT 6SM BR CLR 21/19 A2991 RMK AO2 SLP128 T02110189 10272 20211 58007
 
KNEL - Lakehurst Nas, New Jersey, USA
Distance from station: ESE 46mi, 74km
Updated: 03-Sep-2015 2:00am
Mist, Clear
Mist, Clear
 Wind from WNW
Wind: WNW 3 mph , 6 km/h
Temperature: 70°F , 21°C
Dew Point: 70°F , 21°C
Humidity: 100%
Barometer: 29.87 inHg , 1011.5 hPa
Summary: Mist
Clouds: Clear
Visibility: 5 miles , 8 km
2015/09/03 06:00 KNEL 030600Z AUTO 29003KT 5SM BR CLR 21/21 A2987 RMK AO2 SLP114 6//// T02110206 10256 20211 58005 PNO $
KMJX - Toms River, New Jersey, USA
Distance from station: ESE 50mi, 80km
Updated: 03-Sep-2015 2:35am
Clear
Clear
 Wind from calm
Wind: Calm
Temperature: 70°F , 21°C
Dew Point: 66°F , 19°C
Humidity: 88%
Barometer: 29.88 inHg , 1011.9 hPa
Clouds: Clear
Visibility: 5 miles , 8 km
2015/09/03 06:35 KMJX 030635Z AUTO 00000KT 5SM CLR 21/19 A2988 RMK AO1